Time;durP1;ratioP1;P1;durP2;ratioP2;P2;SDS_P1;SDS_P2;PMS_P1;PMS_P2;Temp;Humidity;BMP_temperature;BMP_pressure;BME280_temperature;BME280_humidity;BME280_pressure;Samples;Min_cycle;Max_cycle;Signal;HPM_P1;HPM_P2
2022/11/03 00:02:03;;;;;;;28.33;4.22;;;15.40;99.90;;;;;;5063263;28;20107;-69
2022/11/03 00:04:29;;;;;;;22.58;3.90;;;15.40;99.90;;;;;;5062881;28;20127;-68
2022/11/03 00:06:54;;;;;;;26.58;4.65;;;15.30;99.90;;;;;;5047067;28;20036;-69
2022/11/03 00:09:21;;;;;;;25.95;5.22;;;15.20;99.90;;;;;;5063981;28;20535;-69
2022/11/03 00:11:52;;;;;;;33.35;4.88;;;15.20;99.90;;;;;;5064154;28;20055;-70
2022/11/03 00:14:18;;;;;;;30.52;4.35;;;15.10;99.90;;;;;;5061767;28;20032;-70
2022/11/03 00:16:44;;;;;;;27.60;4.28;;;15.20;99.90;;;;;;5061782;28;20145;-70
2022/11/03 00:19:12;;;;;;;20.00;4.05;;;15.10;99.90;;;;;;5062810;28;20051;-71
2022/11/03 00:21:37;;;;;;;31.67;4.63;;;15.00;99.90;;;;;;5063875;28;20028;-70
2022/11/03 00:24:04;;;;;;;25.08;4.40;;;14.90;99.90;;;;;;5063599;28;20390;-70
2022/11/03 00:26:31;;;;;;;23.02;4.65;;;14.80;99.90;;;;;;5063891;28;20036;-70
2022/11/03 00:28:59;;;;;;;30.27;5.22;;;14.70;99.90;;;;;;5063366;28;20032;-69
2022/11/03 00:31:30;;;;;;;22.15;4.18;;;14.70;99.90;;;;;;5063531;28;20044;-69
2022/11/03 00:33:56;;;;;;;27.85;4.82;;;14.60;99.90;;;;;;5045301;28;20054;-70
2022/11/03 00:36:26;;;;;;;25.85;5.05;;;14.50;99.90;;;;;;5066627;28;20085;-69
2022/11/03 00:38:52;;;;;;;30.33;4.75;;;14.50;99.90;;;;;;5066548;28;20039;-69
2022/11/03 00:41:21;;;;;;;23.35;4.43;;;14.50;99.90;;;;;;5043633;28;20490;-70
2022/11/03 00:43:48;;;;;;;24.75;4.65;;;14.50;99.90;;;;;;5066761;28;20086;-70
2022/11/03 00:46:14;;;;;;;31.75;5.38;;;14.50;99.90;;;;;;5061477;28;20068;-69
2022/11/03 00:48:40;;;;;;;33.50;5.40;;;14.40;99.90;;;;;;5060189;28;20040;-70
2022/11/03 00:51:08;;;;;;;28.45;4.50;;;14.40;99.90;;;;;;5067270;28;20028;-70
2022/11/03 00:53:44;;;;;;;33.83;5.07;;;14.40;99.90;;;;;;5065702;28;20039;-71
2022/11/03 00:56:24;;;;;;;28.33;4.88;;;14.30;99.90;;;;;;5066474;28;20047;-72
2022/11/03 00:58:51;;;;;;;29.92;5.25;;;14.20;99.90;;;;;;5067104;28;20040;-70
2022/11/03 01:01:18;;;;;;;29.90;4.90;;;14.20;99.90;;;;;;5065943;28;20036;-71
2022/11/03 01:06:49;;;;;;;24.73;4.97;;;14.00;99.90;;;;;;5066343;28;20121;-72
2022/11/03 01:09:27;;;;;;;32.28;5.40;;;14.00;99.90;;;;;;5066973;28;20039;-71
2022/11/03 01:12:13;;;;;;;34.80;5.35;;;13.90;99.90;;;;;;5060195;28;20432;-73
2022/11/03 01:14:42;;;;;;;27.30;4.55;;;13.90;99.90;;;;;;5066292;28;20127;-71
2022/11/03 01:17:10;;;;;;;21.15;4.70;;;13.90;99.90;;;;;;5048040;28;20586;-71
2022/11/03 01:19:36;;;;;;;24.02;3.60;;;13.90;99.90;;;;;;5064188;28;20039;-72
2022/11/03 01:22:02;;;;;;;14.98;2.92;;;13.80;99.90;;;;;;5065700;28;20029;-72
2022/11/03 01:24:28;;;;;;;15.32;2.92;;;13.70;99.90;;;;;;5047994;28;20033;-71
2022/11/03 01:26:53;;;;;;;15.05;2.20;;;13.50;99.90;;;;;;5065678;28;20037;-73
2022/11/03 01:29:19;;;;;;;11.82;2.60;;;13.40;99.90;;;;;;5064865;28;20135;-71
2022/11/03 01:31:45;;;;;;;13.05;2.10;;;13.20;99.90;;;;;;5068235;28;20032;-72
2022/11/03 01:34:18;;;;;;;12.82;2.17;;;13.10;99.90;;;;;;5066410;28;20817;-72
2022/11/03 01:36:44;;;;;;;13.30;2.03;;;13.10;99.90;;;;;;5065150;28;20626;-72
2022/11/03 01:39:15;;;;;;;20.85;3.08;;;13.10;99.90;;;;;;5064160;28;20021;-72
2022/11/03 01:41:43;;;;;;;31.08;5.32;;;13.10;99.90;;;;;;5063109;28;20491;-72
2022/11/03 01:44:08;;;;;;;33.42;5.00;;;13.20;99.90;;;;;;5064509;28;20040;-71
2022/11/03 01:46:48;;;;;;;37.20;5.28;;;13.40;99.90;;;;;;5065077;28;20471;-71
2022/11/03 01:49:23;;;;;;;31.23;5.35;;;13.50;99.90;;;;;;5064782;28;20025;-71
2022/11/03 01:51:56;;;;;;;32.03;5.75;;;13.60;99.90;;;;;;5064510;28;20043;-73
2022/11/03 01:54:24;;;;;;;28.65;5.43;;;13.60;99.90;;;;;;5048454;28;20036;-73
2022/11/03 01:56:51;;;;;;;28.17;5.13;;;13.70;99.90;;;;;;5065691;28;20037;-73
2022/11/03 01:59:19;;;;;;;28.17;4.93;;;13.70;99.90;;;;;;5045007;28;20028;-73
2022/11/03 02:01:45;;;;;;;30.70;4.47;;;13.70;99.90;;;;;;5064484;28;20033;-73
2022/11/03 02:04:21;;;;;;;26.02;4.50;;;13.70;99.90;;;;;;5046812;28;20032;-74
2022/11/03 02:06:52;;;;;;;31.42;5.20;;;13.70;99.90;;;;;;5064914;28;20043;-72
2022/11/03 02:09:19;;;;;;;25.17;4.82;;;13.70;99.90;;;;;;5046433;28;20391;-73
2022/11/03 02:14:29;;;;;;;29.95;4.75;;;13.70;99.90;;;;;;5061256;28;20538;-72
2022/11/03 02:17:00;;;;;;;22.90;4.03;;;13.80;99.90;;;;;;5047839;28;20478;-71
2022/11/03 02:19:31;;;;;;;25.55;4.55;;;13.80;99.90;;;;;;5063952;28;20032;-71
2022/11/03 02:22:13;;;;;;;28.30;5.32;;;13.80;99.90;;;;;;5060910;28;20111;-72
2022/11/03 02:24:48;;;;;;;25.73;5.03;;;13.80;99.90;;;;;;5058216;28;20094;-72
2022/11/03 02:27:13;;;;;;;23.25;4.43;;;13.90;99.90;;;;;;5061582;28;20063;-72
2022/11/03 02:29:39;;;;;;;24.58;4.70;;;13.80;99.90;;;;;;5064178;28;21044;-73
2022/11/03 02:32:25;;;;;;;24.90;4.75;;;13.90;99.90;;;;;;5064864;28;20028;-72
2022/11/03 02:35:02;;;;;;;26.45;4.50;;;13.90;99.90;;;;;;5062423;28;20040;-73
2022/11/03 02:37:34;;;;;;;21.70;3.70;;;14.00;99.90;;;;;;5062110;28;20137;-71
2022/11/03 02:40:26;;;;;;;23.52;3.72;;;14.00;99.90;;;;;;5060338;28;20052;-72
2022/11/03 02:42:52;;;;;;;23.52;4.38;;;13.90;99.90;;;;;;5060688;28;20037;-72
2022/11/03 02:45:21;;;;;;;16.65;3.67;;;13.80;99.90;;;;;;5062075;28;20036;-72
2022/11/03 02:47:48;;;;;;;21.17;3.80;;;13.80;99.90;;;;;;5062003;28;20033;-71
2022/11/03 02:50:14;;;;;;;24.70;4.55;;;13.70;99.90;;;;;;5063348;28;20111;-71
2022/11/03 02:52:45;;;;;;;19.95;3.42;;;13.80;99.90;;;;;;5063924;28;20144;-72
2022/11/03 02:55:25;;;;;;;16.13;2.65;;;13.70;99.90;;;;;;5064012;28;20106;-71
2022/11/03 02:58:06;;;;;;;15.73;2.15;;;13.60;99.90;;;;;;5063607;28;20037;-72
2022/11/03 03:00:40;;;;;;;16.85;2.50;;;13.60;99.90;;;;;;5043425;28;20036;-70
2022/11/03 03:03:18;;;;;;;14.88;2.88;;;13.50;99.90;;;;;;5064559;28;20494;-72
2022/11/03 03:05:46;;;;;;;20.00;3.35;;;13.50;99.90;;;;;;5065076;28;20148;-73
2022/11/03 03:08:13;;;;;;;15.27;2.80;;;13.50;99.90;;;;;;5065817;28;20129;-73
2022/11/03 03:10:43;;;;;;;14.85;3.03;;;13.60;99.90;;;;;;5065099;28;20107;-73
2022/11/03 03:13:10;;;;;;;;;;;13.60;99.90;;;;;;5064047;28;20040;-72
2022/11/03 03:15:56;;;;;;;18.92;3.60;;;13.60;99.90;;;;;;5063185;28;19916;-74
2022/11/03 03:18:47;;;;;;;23.45;4.82;;;13.70;99.90;;;;;;5065107;28;20036;-73
2022/11/03 03:21:22;;;;;;;25.83;4.70;;;13.70;99.90;;;;;;5065010;28;20032;-74
2022/11/03 03:24:01;;;;;;;24.33;4.43;;;13.70;99.90;;;;;;5045307;28;20036;-75
2022/11/03 03:26:37;;;;;;;22.45;4.70;;;13.70;99.90;;;;;;5064989;28;20028;-73
2022/11/03 03:29:08;;;;;;;22.38;4.10;;;13.70;99.90;;;;;;5064858;28;20482;-74
2022/11/03 03:31:38;;;;;;;22.73;3.67;;;13.70;99.90;;;;;;5061339;28;20040;-74
2022/11/03 03:34:04;;;;;;;21.73;2.72;;;13.70;99.90;;;;;;5061372;28;20513;-75
2022/11/03 03:36:31;;;;;;;6.85;0.90;;;13.70;99.90;;;;;;5046246;28;20045;-75
2022/11/03 03:39:01;;;;;;;3.83;0.85;;;13.10;99.90;;;;;;5063848;28;20067;-74
2022/11/03 03:41:31;;;;;;;11.38;2.28;;;12.80;99.90;;;;;;5062941;28;20047;-71
2022/11/03 03:44:01;;;;;;;26.02;3.28;;;12.80;99.90;;;;;;5038137;28;20032;-74
2022/11/03 03:46:33;;;;;;;26.55;4.05;;;12.90;99.90;;;;;;5064717;28;20088;-74
2022/11/03 03:48:59;;;;;;;20.80;3.22;;;13.00;99.90;;;;;;5059263;28;20028;-72
2022/11/03 03:51:27;;;;;;;12.35;2.03;;;12.90;99.90;;;;;;5062199;28;20094;-71
2022/11/03 03:53:54;;;;;;;14.38;2.40;;;12.80;99.90;;;;;;5060447;28;20636;-73
2022/11/03 03:56:32;;;;;;;14.48;2.00;;;12.60;99.90;;;;;;5060503;28;20070;-73
2022/11/03 03:58:58;;;;;;;8.18;1.23;;;12.60;99.90;;;;;;5059946;28;20514;-74
2022/11/03 04:01:23;;;;;;;8.93;1.55;;;12.50;99.90;;;;;;5060645;28;20024;-75
2022/11/03 04:03:49;;;;;;;10.23;1.08;;;12.40;99.90;;;;;;5061807;28;20032;-73
2022/11/03 04:06:15;;;;;;;6.03;0.70;;;12.30;99.90;;;;;;5063547;28;20127;-73
2022/11/03 04:08:40;;;;;;;7.22;1.30;;;12.30;99.90;;;;;;5066075;28;20047;-74
2022/11/03 04:22:15;;;;;;;11.50;1.58;;;12.80;99.90;;;;;;5056129;28;20046;-73
2022/11/03 04:24:41;;;;;;;15.52;3.35;;;12.80;99.90;;;;;;5049258;28;20543;-73
2022/11/03 04:27:29;;;;;;;21.20;4.22;;;13.20;99.90;;;;;;5067416;28;20040;-75
2022/11/03 04:30:08;;;;;;;22.40;4.32;;;13.40;99.90;;;;;;5046992;28;20406;-72
2022/11/03 04:32:35;;;;;;;28.33;6.30;;;13.30;99.90;;;;;;5067823;28;20029;-71
2022/11/03 04:35:00;;;;;;;28.77;5.25;;;13.40;99.90;;;;;;5063527;28;20524;-70
2022/11/03 04:37:27;;;;;;;26.40;5.13;;;13.40;99.90;;;;;;5052349;28;20041;-73
2022/11/03 04:39:59;;;;;;;22.73;5.55;;;13.50;99.90;;;;;;5049547;28;20043;-70
2022/11/03 04:42:24;;;;;;;26.52;4.82;;;13.50;99.90;;;;;;5067353;28;20398;-72
2022/11/03 04:44:50;;;;;;;30.50;5.70;;;13.70;99.90;;;;;;5066024;28;20036;-72
2022/11/03 04:47:17;;;;;;;17.42;4.75;;;13.50;99.90;;;;;;5066040;28;20035;-71
2022/11/03 04:49:45;;;;;;;24.83;5.50;;;13.60;99.90;;;;;;5065584;28;20039;-71
2022/11/03 04:52:21;;;;;;;22.05;4.15;;;13.70;99.90;;;;;;5041936;28;20028;-73
2022/11/03 04:54:49;;;;;;;15.60;4.03;;;13.70;99.90;;;;;;5066685;28;20042;-72
2022/11/03 04:57:15;;;;;;;25.40;4.28;;;13.60;99.90;;;;;;5049197;28;20072;-72
2022/11/03 04:59:44;;;;;;;26.13;4.82;;;13.70;99.90;;;;;;5066073;28;20041;-72
2022/11/03 05:02:16;;;;;;;21.20;4.33;;;13.60;99.90;;;;;;5065821;28;20044;-72
2022/11/03 05:04:42;;;;;;;25.05;4.68;;;13.60;99.90;;;;;;5066843;28;20391;-72
2022/11/03 05:07:21;;;;;;;26.13;5.70;;;13.70;99.90;;;;;;5048988;28;20111;-71
2022/11/03 05:09:46;;;;;;;25.67;5.57;;;13.60;99.90;;;;;;5063658;28;20734;-71
2022/11/03 05:12:12;;;;;;;23.85;4.30;;;13.70;99.90;;;;;;5037812;28;20269;-71
2022/11/03 05:14:37;;;;;;;22.10;4.13;;;13.70;99.90;;;;;;5066288;28;20037;-72
2022/11/03 05:17:16;;;;;;;25.67;4.40;;;13.60;99.90;;;;;;5065177;28;20439;-73
2022/11/03 05:19:43;;;;;;;21.73;4.53;;;13.60;99.90;;;;;;5048915;28;20039;-71
2022/11/03 05:22:21;;;;;;;21.08;4.00;;;13.60;99.90;;;;;;5066545;28;20036;-72
2022/11/03 05:24:48;;;;;;;21.35;4.93;;;13.80;99.90;;;;;;5066028;28;20059;-70
2022/11/03 05:27:19;;;;;;;18.70;4.20;;;13.50;99.90;;;;;;5049665;28;20060;-71
2022/11/03 05:29:44;;;;;;;19.00;3.53;;;13.60;99.90;;;;;;5065683;28;20037;-71
2022/11/03 05:32:26;;;;;;;19.88;4.03;;;13.70;99.90;;;;;;5065861;28;20032;-72
2022/11/03 05:34:54;;;;;;;20.08;4.47;;;13.50;99.90;;;;;;5066236;28;20124;-72
2022/11/03 05:37:29;;;;;;;23.65;5.60;;;13.60;99.90;;;;;;5065754;28;20045;-70
2022/11/03 05:40:01;;;;;;;19.88;4.60;;;13.90;99.90;;;;;;5065948;28;20052;-71
2022/11/03 05:42:59;;;;;;;19.90;4.18;;;13.80;99.90;;;;;;5062299;28;20064;-72
2022/11/03 05:45:30;;;;;;;18.52;3.22;;;13.70;99.90;;;;;;5038326;28;20048;-71
2022/11/03 05:47:57;;;;;;;19.20;3.13;;;13.40;99.90;;;;;;5063716;28;20040;-74
2022/11/03 05:50:27;;;;;;;21.83;3.55;;;13.40;99.90;;;;;;5063450;28;20514;-70
2022/11/03 05:52:57;;;;;;;18.73;2.70;;;13.30;99.90;;;;;;5066345;28;20611;-79
2022/11/03 05:55:26;;;;;;;22.02;2.97;;;13.00;99.90;;;;;;5060358;28;20039;-73
2022/11/03 05:57:55;;;;;;;18.35;2.92;;;13.30;99.90;;;;;;5067854;28;20036;-73
2022/11/03 06:00:29;;;;;;;20.88;3.30;;;12.90;99.90;;;;;;5062734;28;20036;-77
2022/11/03 06:02:55;;;;;;;21.63;3.58;;;12.90;99.90;;;;;;5046902;28;20049;-73
2022/11/03 06:05:23;;;;;;;21.58;3.25;;;13.20;99.90;;;;;;5061273;28;21758;-75
2022/11/03 06:07:49;;;;;;;20.40;2.60;;;13.00;99.90;;;;;;5065034;28;20029;-74
2022/11/03 06:10:37;;;;;;;21.70;2.92;;;12.70;99.90;;;;;;5036933;28;20043;-76
2022/11/03 06:13:23;;;;;;;37.92;4.70;;;12.60;99.90;;;;;;5045219;28;20028;-74
2022/11/03 06:16:01;;;;;;;39.58;5.35;;;12.60;99.90;;;;;;5065560;28;20505;-74
2022/11/03 06:18:32;;;;;;;34.00;5.43;;;12.70;99.90;;;;;;5042546;28;20033;-75
2022/11/03 06:21:09;;;;;;;27.35;5.35;;;12.90;99.90;;;;;;5059954;28;20042;-73
2022/11/03 06:23:36;;;;;;;27.27;4.50;;;13.30;99.90;;;;;;5063899;28;20032;-74
2022/11/03 06:26:03;;;;;;;19.42;3.78;;;13.10;99.90;;;;;;5048746;28;20058;-72
2022/11/03 06:28:33;;;;;;;24.75;4.43;;;13.10;99.90;;;;;;5065684;28;20078;-77
2022/11/03 06:30:59;;;;;;;22.02;3.95;;;13.00;99.90;;;;;;5064957;28;20036;-77
2022/11/03 06:33:27;;;;;;;19.00;2.90;;;13.20;99.90;;;;;;5065507;28;20055;-73
2022/11/03 06:36:02;;;;;;;17.42;3.00;;;13.00;99.90;;;;;;5063109;28;20829;-72
2022/11/03 06:38:30;;;;;;;24.00;2.55;;;12.70;99.90;;;;;;5056263;28;20675;-72
2022/11/03 06:40:57;;;;;;;27.52;2.90;;;12.60;99.90;;;;;;5058375;28;20367;-75
2022/11/03 06:43:39;;;;;;;16.77;2.38;;;12.50;99.90;;;;;;5064672;28;20043;-72
2022/11/03 06:46:14;;;;;;;22.38;2.22;;;12.50;99.90;;;;;;5062990;28;20020;-73
2022/11/03 06:48:39;;;;;;;17.17;2.20;;;12.60;99.90;;;;;;5064705;28;20460;-73
2022/11/03 06:51:29;;;;;;;16.02;1.83;;;12.60;99.90;;;;;;5063721;28;20038;-74
2022/11/03 06:53:58;;;;;;;10.23;1.58;;;12.60;99.90;;;;;;5040059;28;20049;-74
2022/11/03 06:56:27;;;;;;;11.02;1.60;;;12.50;99.90;;;;;;5056469;28;20040;-73
2022/11/03 06:58:54;;;;;;;7.80;1.45;;;12.40;99.90;;;;;;5061126;28;20032;-71
2022/11/03 07:01:23;;;;;;;8.75;1.10;;;12.40;99.90;;;;;;5061531;28;21917;-72
2022/11/03 07:03:51;;;;;;;6.68;1.20;;;12.10;99.90;;;;;;5060860;28;20024;-72
2022/11/03 07:06:26;;;;;;;5.95;0.80;;;12.10;99.90;;;;;;5047233;28;20025;-74
2022/11/03 07:08:57;;;;;;;5.22;1.05;;;11.90;99.90;;;;;;5064548;28;20067;-74
2022/11/03 07:11:26;;;;;;;4.90;0.80;;;11.60;99.90;;;;;;5047300;28;20143;-72
2022/11/03 07:14:03;;;;;;;4.63;1.00;;;11.60;99.90;;;;;;5057664;28;20028;-74
2022/11/03 07:16:32;;;;;;;8.38;1.27;;;11.60;99.90;;;;;;5058066;28;20028;-75
2022/11/03 07:19:04;;;;;;;5.55;0.90;;;11.50;99.90;;;;;;5061307;28;20447;-74
2022/11/03 07:21:32;;;;;;;2.53;0.63;;;11.60;99.90;;;;;;5064559;28;20028;-74
2022/11/03 07:24:22;;;;;;;2.70;0.80;;;11.50;99.90;;;;;;5045719;28;20033;-75
2022/11/03 07:26:52;;;;;;;;;;;11.20;99.90;;;;;;5062197;28;20542;-72
2022/11/03 07:29:22;;;;;;;6.55;0.85;;;11.20;99.90;;;;;;5060601;28;20318;-74
2022/11/03 07:31:50;;;;;;;4.18;0.70;;;11.20;99.90;;;;;;5061638;28;20478;-73
2022/11/03 07:34:21;;;;;;;3.35;0.82;;;11.30;99.90;;;;;;5059000;28;20059;-74
2022/11/03 07:36:47;;;;;;;4.20;0.85;;;11.30;99.90;;;;;;5059491;28;20064;-74
2022/11/03 07:39:18;;;;;;;3.00;0.75;;;11.30;99.90;;;;;;5060326;28;20249;-74
2022/11/03 07:41:44;;;;;;;4.03;0.70;;;11.20;99.90;;;;;;5050137;28;20794;-73
2022/11/03 07:44:21;;;;;;;2.92;0.80;;;11.10;99.90;;;;;;5067835;28;20043;-74
2022/11/03 07:46:48;;;;;;;3.28;0.80;;;11.10;99.90;;;;;;5068942;28;20064;-73
2022/11/03 07:49:25;;;;;;;2.85;0.93;;;11.10;99.90;;;;;;5050064;28;20470;-74
2022/11/03 07:51:51;;;;;;;3.83;0.90;;;11.10;99.90;;;;;;5067577;28;20401;-73
2022/11/03 07:54:29;;;;;;;5.85;1.10;;;11.10;99.90;;;;;;5066035;28;20028;-73
2022/11/03 07:56:56;;;;;;;7.97;1.15;;;11.00;99.90;;;;;;5065970;28;20397;-72
2022/11/03 07:59:35;;;;;;;6.80;1.45;;;11.00;99.90;;;;;;5066086;28;20525;-74
2022/11/03 08:02:10;;;;;;;3.88;1.20;;;11.10;99.90;;;;;;5061853;28;20078;-73
2022/11/03 08:04:36;;;;;;;5.00;1.50;;;11.10;99.90;;;;;;5059677;28;20040;-72
2022/11/03 08:07:01;;;;;;;2.17;0.90;;;10.90;99.90;;;;;;5063539;28;20086;-73
2022/11/03 08:09:27;;;;;;;3.72;0.90;;;11.00;99.90;;;;;;5064869;28;20032;-73
2022/11/03 08:11:53;;;;;;;3.72;0.82;;;11.10;99.90;;;;;;5067243;28;20136;-74
2022/11/03 08:14:18;;;;;;;4.72;0.82;;;11.10;99.90;;;;;;5061559;28;20033;-74
2022/11/03 08:16:44;;;;;;;3.78;0.70;;;11.00;99.90;;;;;;5066241;28;20086;-74
2022/11/03 08:19:10;;;;;;;4.47;1.00;;;10.90;99.90;;;;;;5066699;28;20032;-75
2022/11/03 08:21:35;;;;;;;3.80;1.10;;;10.90;99.90;;;;;;5063269;28;20028;-74
2022/11/03 08:24:01;;;;;;;5.82;1.10;;;10.90;99.90;;;;;;5066591;28;20032;-75
2022/11/03 08:26:27;;;;;;;5.63;1.10;;;10.90;99.90;;;;;;5066249;28;20039;-74
2022/11/03 08:28:53;;;;;;;5.55;1.20;;;11.00;99.90;;;;;;5067586;28;20047;-75
2022/11/03 08:31:19;;;;;;;6.40;0.98;;;11.00;99.90;;;;;;5050615;28;20024;-74
2022/11/03 08:33:44;;;;;;;4.63;1.10;;;10.90;99.90;;;;;;5050678;28;20124;-74
2022/11/03 08:36:10;;;;;;;7.60;1.50;;;10.90;99.90;;;;;;5049783;28;20398;-74
2022/11/03 08:38:36;;;;;;;11.48;1.33;;;11.00;99.90;;;;;;5065654;28;20040;-73
2022/11/03 08:41:02;;;;;;;8.32;1.00;;;11.00;99.90;;;;;;5065901;28;20036;-75
2022/11/03 08:43:28;;;;;;;6.93;1.30;;;11.10;99.90;;;;;;5049105;28;20060;-75
2022/11/03 08:45:54;;;;;;;8.05;1.25;;;11.10;99.90;;;;;;5050322;28;20056;-74
2022/11/03 08:48:21;;;;;;;8.65;1.38;;;11.10;99.90;;;;;;5062986;28;20033;-73
2022/11/03 08:50:49;;;;;;;7.90;1.33;;;11.00;99.90;;;;;;5047323;28;20060;-74
2022/11/03 08:53:15;;;;;;;9.90;2.00;;;11.00;99.90;;;;;;5065273;28;20021;-75
2022/11/03 08:55:41;;;;;;;7.65;1.20;;;11.00;99.90;;;;;;5062554;28;20033;-75
2022/11/03 08:58:06;;;;;;;8.85;1.67;;;11.00;99.90;;;;;;5067291;28;20071;-74
2022/11/03 09:00:32;;;;;;;7.80;1.55;;;11.00;99.90;;;;;;5068618;28;20024;-75
2022/11/03 09:02:57;;;;;;;9.27;1.75;;;11.10;99.90;;;;;;5064389;28;20060;-74
2022/11/03 09:05:23;;;;;;;7.50;1.45;;;11.00;99.90;;;;;;5059934;28;20032;-75
2022/11/03 09:07:49;;;;;;;6.63;1.15;;;11.00;99.90;;;;;;5067257;28;20036;-75
2022/11/03 09:10:14;;;;;;;5.90;1.30;;;11.00;99.90;;;;;;5067859;28;20032;-74
2022/11/03 09:12:40;;;;;;;5.18;1.02;;;11.10;99.90;;;;;;5049381;28;20386;-73
2022/11/03 09:15:06;;;;;;;5.40;1.40;;;11.10;99.90;;;;;;5048905;28;20048;-73
2022/11/03 09:17:32;;;;;;;4.82;1.15;;;11.00;99.90;;;;;;5047860;28;20035;-75
2022/11/03 09:19:57;;;;;;;7.55;1.50;;;11.10;99.90;;;;;;5067240;28;20032;-74
2022/11/03 09:22:23;;;;;;;6.50;1.33;;;11.10;99.90;;;;;;5066427;28;20505;-75
2022/11/03 09:24:48;;;;;;;7.38;1.58;;;11.00;99.90;;;;;;5046936;28;20120;-71
2022/11/03 09:27:14;;;;;;;4.35;1.15;;;11.20;99.90;;;;;;5063672;28;20727;-73
2022/11/03 09:29:40;;;;;;;7.55;1.40;;;11.20;99.90;;;;;;5065720;28;20033;-76
2022/11/03 09:32:05;;;;;;;7.68;1.50;;;11.20;99.90;;;;;;5050857;28;20083;-75
2022/11/03 09:34:31;;;;;;;4.13;1.10;;;11.20;99.90;;;;;;5065565;28;20029;-72
2022/11/03 09:36:57;;;;;;;8.63;1.60;;;11.20;99.90;;;;;;5064742;28;20650;-73
2022/11/03 09:39:23;;;;;;;9.13;1.35;;;11.10;99.90;;;;;;5069459;28;20032;-73
2022/11/03 09:41:49;;;;;;;7.82;1.65;;;11.20;99.90;;;;;;5061783;28;20083;-72
2022/11/03 09:44:15;;;;;;;7.47;1.38;;;11.30;99.90;;;;;;5044526;28;20086;-73
2022/11/03 09:46:40;;;;;;;7.28;2.05;;;11.20;99.90;;;;;;5061437;28;20159;-75
2022/11/03 09:49:06;;;;;;;7.70;2.03;;;11.30;99.90;;;;;;5058915;28;20059;-75
2022/11/03 09:51:34;;;;;;;8.93;1.77;;;11.30;99.90;;;;;;5066527;28;20478;-75
2022/11/03 09:54:03;;;;;;;8.48;1.20;;;11.30;99.90;;;;;;5048530;28;20028;-74
2022/11/03 09:56:29;;;;;;;8.70;1.40;;;11.30;99.90;;;;;;5067946;28;20060;-74
2022/11/03 09:58:55;;;;;;;6.43;1.15;;;11.40;99.90;;;;;;5067023;28;20269;-73
2022/11/03 10:01:22;;;;;;;9.05;1.40;;;11.40;99.90;;;;;;5066666;28;20047;-73
2022/11/03 10:03:47;;;;;;;9.80;1.52;;;11.30;99.90;;;;;;5064892;28;20028;-73
2022/11/03 10:06:15;;;;;;;11.90;1.58;;;11.30;99.90;;;;;;5066745;28;20035;-73
2022/11/03 10:08:43;;;;;;;11.07;1.40;;;11.30;99.90;;;;;;5067289;28;20411;-72
2022/11/03 10:11:09;;;;;;;6.13;1.23;;;11.40;99.90;;;;;;5067699;28;20078;-72
2022/11/03 10:13:42;;;;;;;7.15;1.60;;;11.50;99.90;;;;;;5060878;28;20033;-73
2022/11/03 10:16:12;;;;;;;6.80;1.27;;;11.50;99.90;;;;;;5041577;28;20418;-73
2022/11/03 10:18:37;;;;;;;6.75;1.58;;;11.50;99.90;;;;;;5056396;28;20036;-72
2022/11/03 10:21:09;;;;;;;6.28;1.60;;;11.40;99.90;;;;;;5058632;28;20032;-73
2022/11/03 10:23:34;;;;;;;4.32;1.10;;;11.40;99.90;;;;;;5059244;28;20032;-72
2022/11/03 10:26:17;;;;;;;4.68;1.10;;;11.40;99.90;;;;;;5057481;28;20044;-71
2022/11/03 10:28:55;;;;;;;2.50;0.90;;;11.40;99.90;;;;;;5060639;28;20032;-73
2022/11/03 10:31:21;;;;;;;4.63;1.13;;;11.20;99.90;;;;;;5038141;28;20021;-71
2022/11/03 10:33:52;;;;;;;3.03;0.90;;;11.20;99.90;;;;;;5035994;28;20033;-72
2022/11/03 10:36:18;;;;;;;5.38;1.58;;;11.10;99.90;;;;;;5061974;28;20028;-72
2022/11/03 10:38:44;;;;;;;2.67;0.90;;;11.30;99.90;;;;;;5058966;28;20043;-73
2022/11/03 10:41:14;;;;;;;2.33;0.82;;;11.20;99.90;;;;;;5061681;28;20927;-73
2022/11/03 10:43:42;;;;;;;3.95;1.00;;;11.20;99.90;;;;;;5061629;28;20035;-71
2022/11/03 10:46:13;;;;;;;2.22;1.02;;;11.30;99.90;;;;;;5055472;28;20051;-71
2022/11/03 10:48:39;;;;;;;4.13;0.90;;;11.30;99.90;;;;;;5042096;28;20126;-73
2022/11/03 10:51:08;;;;;;;4.63;0.95;;;11.30;99.90;;;;;;5059253;28;20033;-72
2022/11/03 10:53:33;;;;;;;1.58;0.70;;;11.30;99.90;;;;;;5059901;28;20051;-72
2022/11/03 10:55:59;;;;;;;4.05;0.82;;;11.30;99.90;;;;;;5059399;28;20111;-71
2022/11/03 10:58:24;;;;;;;6.05;1.20;;;11.50;99.90;;;;;;5056893;28;20040;-71
2022/11/03 11:00:50;;;;;;;4.03;1.20;;;11.30;99.90;;;;;;5058321;28;20555;-72
2022/11/03 11:03:16;;;;;;;3.20;0.82;;;11.30;99.90;;;;;;5039701;28;20383;-72
2022/11/03 11:05:46;;;;;;;5.32;1.20;;;11.50;99.90;;;;;;5050898;28;20123;-71
2022/11/03 11:08:13;;;;;;;;;;;11.50;99.90;;;;;;5064094;28;20025;-71
2022/11/03 11:10:43;;;;;;;6.72;1.33;;;11.40;99.90;;;;;;5061052;28;19924;-72
2022/11/03 11:13:18;;;;;;;4.65;1.15;;;11.40;99.90;;;;;;5057477;28;20536;-72
2022/11/03 11:15:48;;;;;;;4.03;1.20;;;11.50;99.90;;;;;;5059695;28;20041;-72
2022/11/03 11:18:26;;;;;;;5.43;1.10;;;11.60;99.90;;;;;;5046929;28;20090;-74
2022/11/03 11:20:52;;;;;;;5.30;1.23;;;11.40;99.90;;;;;;5059289;28;20401;-74
2022/11/03 11:23:27;;;;;;;4.95;1.40;;;11.50;99.90;;;;;;5060847;28;20029;-72
2022/11/03 11:26:24;;;;;;;3.10;0.93;;;11.50;99.90;;;;;;5060231;28;20035;-74
2022/11/03 11:29:08;;;;;;;4.38;1.20;;;11.70;99.90;;;;;;5061160;28;20086;-72
2022/11/03 11:31:38;;;;;;;2.88;1.00;;;11.60;99.90;;;;;;5065474;28;20035;-73
2022/11/03 11:34:11;;;;;;;;;;;11.60;99.90;;;;;;5050853;28;20028;-73
2022/11/03 11:36:55;;;;;;;5.65;1.48;;;11.70;99.90;;;;;;5059276;28;19916;-73
2022/11/03 11:39:27;;;;;;;3.88;1.50;;;11.80;99.90;;;;;;5064813;28;20035;-73
2022/11/03 11:42:05;;;;;;;2.33;1.08;;;11.90;99.90;;;;;;5064612;28;20748;-72
2022/11/03 11:44:51;;;;;;;5.53;1.30;;;11.80;99.90;;;;;;5056597;28;20516;-73
2022/11/03 11:47:42;;;;;;;4.75;1.05;;;11.80;99.90;;;;;;5064860;28;20473;-74
2022/11/03 11:50:08;;;;;;;2.92;0.95;;;11.80;99.90;;;;;;5054288;28;20116;-72
2022/11/03 11:52:46;;;;;;;3.42;0.90;;;11.80;99.90;;;;;;5047114;28;20139;-73
2022/11/03 11:55:24;;;;;;;5.07;0.90;;;11.80;99.90;;;;;;5043545;28;20036;-73
2022/11/03 11:57:50;;;;;;;4.68;1.20;;;11.80;99.90;;;;;;5046501;28;20033;-73
2022/11/03 12:00:30;;;;;;;4.95;1.27;;;11.70;99.90;;;;;;5064245;28;20067;-73
2022/11/03 12:02:57;;;;;;;2.93;1.00;;;11.70;99.90;;;;;;5063356;28;20043;-72
2022/11/03 12:05:31;;;;;;;4.60;1.38;;;11.60;99.90;;;;;;5079117;28;20262;-73
2022/11/03 12:07:57;;;;;;;2.83;1.10;;;11.70;99.90;;;;;;5066051;28;20068;-73
2022/11/03 12:10:26;;;;;;;3.90;1.10;;;11.70;99.90;;;;;;5064247;28;20545;-72
2022/11/03 12:12:52;;;;;;;5.15;1.27;;;11.70;99.90;;;;;;5065896;28;20025;-73
2022/11/03 12:15:56;;;;;;;3.13;1.30;;;11.80;99.90;;;;;;5065338;28;20033;-73
2022/11/03 12:18:35;;;;;;;3.95;1.38;;;11.70;99.90;;;;;;5046660;28;20044;-73
2022/11/03 12:21:03;;;;;;;3.53;1.05;;;11.80;99.90;;;;;;5063094;28;20028;-73
2022/11/03 12:23:46;;;;;;;3.28;1.10;;;11.80;99.90;;;;;;5065900;28;20127;-72
2022/11/03 12:26:17;;;;;;;4.65;1.17;;;11.80;99.90;;;;;;5069284;28;20048;-73
2022/11/03 12:28:43;;;;;;;2.90;0.80;;;11.90;99.90;;;;;;5069364;28;20425;-73
2022/11/03 12:31:09;;;;;;;2.72;0.77;;;11.80;99.90;;;;;;5069366;28;20032;-73
2022/11/03 12:33:35;;;;;;;4.18;0.90;;;11.90;99.90;;;;;;5069145;28;20439;-73
2022/11/03 12:36:00;;;;;;;3.53;1.00;;;12.00;99.90;;;;;;5049219;28;20028;-73
2022/11/03 12:38:26;;;;;;;3.92;1.00;;;11.90;99.90;;;;;;5069400;28;20040;-73
2022/11/03 12:40:52;;;;;;;2.95;0.95;;;11.90;99.90;;;;;;5089928;28;20035;-72
2022/11/03 12:43:18;;;;;;;3.75;1.00;;;12.00;99.90;;;;;;5070965;28;20021;-72
2022/11/03 12:45:44;;;;;;;4.10;1.05;;;11.90;99.90;;;;;;5072650;28;20064;-71
2022/11/03 12:48:10;;;;;;;5.20;1.50;;;11.90;99.90;;;;;;5050762;28;20071;-72
2022/11/03 12:50:38;;;;;;;2.42;1.10;;;11.90;99.90;;;;;;5069026;28;20021;-72
2022/11/03 12:53:05;;;;;;;2.40;1.10;;;11.80;99.90;;;;;;5068726;28;20029;-72
2022/11/03 12:55:31;;;;;;;2.72;1.00;;;11.80;99.90;;;;;;5069020;28;20151;-73
2022/11/03 12:57:57;;;;;;;3.13;1.20;;;11.90;99.90;;;;;;5069084;28;20029;-72
2022/11/03 13:00:22;;;;;;;4.18;1.27;;;11.80;99.90;;;;;;5065240;28;20025;-72
2022/11/03 13:02:48;;;;;;;3.25;1.35;;;11.80;99.90;;;;;;5068110;28;20037;-70
2022/11/03 13:05:14;;;;;;;2.90;1.20;;;11.70;99.90;;;;;;5068313;28;20032;-72
2022/11/03 13:07:41;;;;;;;2.97;1.48;;;11.80;99.90;;;;;;5067722;28;20032;-72
2022/11/03 13:10:06;;;;;;;4.30;1.40;;;11.80;99.90;;;;;;5066922;28;20033;-72
2022/11/03 13:12:33;;;;;;;3.70;1.35;;;11.70;99.90;;;;;;5048188;28;20024;-73
2022/11/03 13:15:01;;;;;;;3.95;1.20;;;11.80;99.90;;;;;;5066379;28;20040;-72